createdAt,value
2019-02-14T00:00:09.349Z,100090.80
2019-02-14T00:02:38.648Z,100089.10
2019-02-14T00:05:15.881Z,100084.41
2019-02-14T00:07:38.930Z,100091.78
2019-02-14T00:10:08.343Z,100095.03
2019-02-14T00:12:37.676Z,100092.05
2019-02-14T00:15:08.222Z,100080.18
2019-02-14T00:17:37.507Z,100084.48
2019-02-14T00:20:07.648Z,100083.08
2019-02-14T00:22:36.904Z,100088.02
2019-02-14T00:25:06.994Z,100082.48
2019-02-14T00:27:36.348Z,100078.63
2019-02-14T00:30:07.001Z,100075.47
2019-02-14T00:32:36.265Z,100072.81
2019-02-14T00:35:05.787Z,100075.71
2019-02-14T00:37:35.065Z,100060.72
2019-02-14T00:40:04.529Z,100060.52
2019-02-14T00:42:33.812Z,100056.59
2019-02-14T00:45:03.105Z,100062.12
2019-02-14T00:47:32.365Z,100067.55
2019-02-14T00:50:01.658Z,100060.18
2019-02-14T00:52:30.937Z,100064.69
2019-02-14T00:55:00.287Z,100071.47
2019-02-14T00:57:30.564Z,100067.26
2019-02-14T00:59:59.835Z,100063.23
2019-02-14T01:02:29.116Z,100069.20
2019-02-14T01:04:58.368Z,100061.94
2019-02-14T01:07:27.638Z,100063.28
2019-02-14T01:09:56.887Z,100063.64
2019-02-14T01:12:26.173Z,100068.13
2019-02-14T01:14:55.468Z,100073.25
2019-02-14T01:17:24.902Z,100076.20
2019-02-14T01:19:54.157Z,100080.68
2019-02-14T01:22:23.418Z,100086.19
2019-02-14T01:24:52.683Z,100079.25
2019-02-14T01:27:21.923Z,100076.61
2019-02-14T01:29:51.210Z,100073.53
2019-02-14T01:32:21.809Z,100077.14
2019-02-14T01:34:51.057Z,100080.92
2019-02-14T01:37:20.359Z,100084.84
2019-02-14T01:39:49.615Z,100083.14
2019-02-14T01:42:18.892Z,100081.93
2019-02-14T01:44:48.152Z,100076.48
2019-02-14T01:47:17.434Z,100079.47
2019-02-14T01:49:46.687Z,100071.66
2019-02-14T01:52:15.960Z,100077.83
2019-02-14T01:54:45.274Z,100074.59
2019-02-14T01:57:14.530Z,100080.05
2019-02-14T01:59:43.793Z,100079.25
2019-02-14T02:02:13.044Z,100075.64
2019-02-14T02:04:42.328Z,100072.95
2019-02-14T02:07:11.580Z,100069.89
2019-02-14T02:09:40.841Z,100054.48
2019-02-14T02:12:10.112Z,100061.59
2019-02-14T02:14:39.367Z,100054.34
2019-02-14T02:17:08.651Z,100051.57
2019-02-14T02:19:37.905Z,100051.39
2019-02-14T02:22:07.498Z,100047.53
2019-02-14T02:24:36.759Z,100045.31
2019-02-14T02:27:06.111Z,100042.27
2019-02-14T02:29:35.390Z,100043.22
2019-02-14T02:32:04.664Z,100041.81
2019-02-14T02:34:33.952Z,100038.65
2019-02-14T02:37:03.266Z,100054.03
2019-02-14T02:39:32.547Z,100050.54
2019-02-14T02:42:01.816Z,100053.58
2019-02-14T02:44:31.075Z,100060.19
2019-02-14T02:47:00.347Z,100061.69
2019-02-14T02:49:29.608Z,100070.69
2019-02-14T02:51:58.884Z,100079.06
2019-02-14T02:54:28.137Z,100072.03
2019-02-14T02:56:58.367Z,100078.81
2019-02-14T02:59:27.643Z,100085.61
2019-02-14T03:01:58.105Z,100092.49
2019-02-14T03:04:27.395Z,100089.30
2019-02-14T03:06:56.649Z,100082.28
2019-02-14T03:09:25.921Z,100090.17
2019-02-14T03:11:55.208Z,100098.62
2019-02-14T03:14:24.451Z,100102.95
2019-02-14T03:16:53.731Z,100103.31
2019-02-14T03:19:22.972Z,100101.91
2019-02-14T03:21:52.244Z,100104.13
2019-02-14T03:24:21.478Z,100102.56
2019-02-14T03:26:50.753Z,100089.65
2019-02-14T03:29:20.027Z,100092.14
2019-02-14T03:31:49.285Z,100084.70
2019-02-14T03:34:18.579Z,100087.20
2019-02-14T03:36:47.821Z,100082.64
2019-02-14T03:39:17.125Z,100090.70
2019-02-14T03:41:46.384Z,100082.02
2019-02-14T03:44:15.652Z,100084.95
2019-02-14T03:46:44.937Z,100079.83
2019-02-14T03:49:14.197Z,100082.84
2019-02-14T03:51:43.474Z,100093.27
2019-02-14T03:54:12.728Z,100099.33
2019-02-14T03:56:41.993Z,100105.52
2019-02-14T03:59:11.235Z,100096.41
2019-02-14T04:01:40.508Z,100090.80
2019-02-14T04:04:09.775Z,100088.31
2019-02-14T04:06:39.037Z,100095.13
2019-02-14T04:09:08.629Z,100098.64
2019-02-14T04:11:37.876Z,100100.14
2019-02-14T04:14:07.153Z,100105.67
2019-02-14T04:16:36.437Z,100104.92
2019-02-14T04:19:05.720Z,100105.69
2019-02-14T04:21:34.969Z,100105.19
2019-02-14T04:24:04.237Z,100104.89
2019-02-14T04:26:33.495Z,100103.19
2019-02-14T04:29:02.820Z,100103.09
2019-02-14T04:31:32.067Z,100098.34
2019-02-14T04:34:01.339Z,100096.41
2019-02-14T04:36:35.962Z,100085.59
2019-02-14T04:39:01.606Z,100083.44
2019-02-14T04:41:30.896Z,100083.57
2019-02-14T04:44:00.159Z,100084.25
2019-02-14T04:46:29.435Z,100076.79
2019-02-14T04:48:58.685Z,100090.12
2019-02-14T04:51:27.971Z,100080.87
2019-02-14T04:53:57.257Z,100089.66
2019-02-14T04:56:26.512Z,100096.17
2019-02-14T04:58:55.803Z,100095.36
2019-02-14T05:01:25.057Z,100086.97
2019-02-14T05:03:54.327Z,100089.76
2019-02-14T05:06:23.580Z,100095.36
2019-02-14T05:08:52.869Z,100096.90
2019-02-14T05:11:22.119Z,100096.77
2019-02-14T05:13:51.386Z,100094.25
2019-02-14T05:16:20.652Z,100098.97
2019-02-14T05:18:49.912Z,100098.30
2019-02-14T05:21:19.201Z,100095.81
2019-02-14T05:23:48.449Z,100107.75
2019-02-14T05:26:17.747Z,100093.81
2019-02-14T05:28:47.005Z,100092.15
2019-02-14T05:31:16.272Z,100092.02
2019-02-14T05:33:45.557Z,100089.03
2019-02-14T05:36:14.842Z,100100.14
2019-02-14T05:38:44.125Z,100100.73
2019-02-14T05:41:13.400Z,100108.08
2019-02-14T05:43:42.716Z,100105.58
2019-02-14T05:46:11.968Z,100110.43
2019-02-14T05:48:41.223Z,100118.63
2019-02-14T05:51:10.513Z,100116.85
2019-02-14T05:53:39.762Z,100121.61
2019-02-14T05:56:10.049Z,100122.30
2019-02-14T05:58:39.305Z,100117.02
2019-02-14T06:01:10.256Z,100122.45
2019-02-14T06:03:39.898Z,100123.73
2019-02-14T06:06:10.968Z,100126.25
2019-02-14T06:08:40.801Z,100130.28
2019-02-14T06:11:11.506Z,100134.16
2019-02-14T06:13:41.203Z,100128.36
2019-02-14T06:16:31.143Z,100127.60
2019-02-14T06:19:00.675Z,100119.70
2019-02-14T06:21:34.355Z,100129.44
2019-02-14T06:24:03.941Z,100130.54
2019-02-14T06:26:33.774Z,100130.77
2019-02-14T06:29:03.150Z,100128.56
2019-02-14T06:31:32.626Z,100131.34
2019-02-14T06:34:02.194Z,100123.50
2019-02-14T06:36:32.258Z,100133.28
2019-02-14T06:39:04.547Z,100135.22
2019-02-14T06:41:34.053Z,100134.63
2019-02-14T06:44:03.551Z,100141.42
2019-02-14T06:46:34.535Z,100137.62
2019-02-14T06:49:04.169Z,100142.58
2019-02-14T06:51:33.819Z,100143.27
2019-02-14T06:54:03.248Z,100141.17
2019-02-14T06:56:32.504Z,100147.72
2019-02-14T06:59:01.782Z,100152.11
2019-02-14T07:01:31.049Z,100157.12
2019-02-14T07:04:00.392Z,100156.14
2019-02-14T07:06:29.645Z,100162.89
2019-02-14T07:08:58.954Z,100164.27
2019-02-14T07:11:29.720Z,100176.00
2019-02-14T07:13:58.990Z,100188.47
2019-02-14T07:16:29.719Z,100192.13
2019-02-14T07:18:58.981Z,100189.11
2019-02-14T07:21:28.253Z,100198.27
2019-02-14T07:23:57.512Z,100193.91
2019-02-14T07:26:26.805Z,100191.55
2019-02-14T07:28:56.064Z,100196.55
2019-02-14T07:31:25.328Z,100202.05
2019-02-14T07:33:54.616Z,100203.95
2019-02-14T07:36:24.078Z,100200.67
2019-02-14T07:38:53.437Z,100196.58
2019-02-14T07:41:22.693Z,100202.29
2019-02-14T07:43:52.007Z,100192.55
2019-02-14T07:46:22.925Z,100199.16
2019-02-14T07:48:52.335Z,100201.88
2019-02-14T07:51:21.631Z,100206.67
2019-02-14T07:53:52.705Z,100196.95
2019-02-14T07:56:21.993Z,100203.54
2019-02-14T07:58:51.253Z,100203.15
2019-02-14T08:01:20.658Z,100202.69
2019-02-14T08:03:49.927Z,100196.45
2019-02-14T08:06:19.198Z,100192.79
2019-02-14T08:08:48.490Z,100204.03
2019-02-14T08:11:17.746Z,100204.14
2019-02-14T08:13:47.043Z,100198.17
2019-02-14T08:16:16.292Z,100193.08
2019-02-14T08:18:45.571Z,100199.34
2019-02-14T08:21:14.906Z,100210.69
2019-02-14T08:23:44.174Z,100215.48
2019-02-14T08:26:13.477Z,100210.84
2019-02-14T08:28:42.736Z,100210.49
2019-02-14T08:31:12.078Z,100207.97
2019-02-14T08:33:41.359Z,100194.02
2019-02-14T08:36:10.811Z,100195.38
2019-02-14T08:38:40.081Z,100179.84
2019-02-14T08:41:09.393Z,100175.19
2019-02-14T08:43:38.721Z,100181.37
2019-02-14T08:46:07.982Z,100197.82
2019-02-14T08:48:37.275Z,100209.04
2019-02-14T08:51:07.149Z,100212.55
2019-02-14T08:53:36.441Z,100210.02
2019-02-14T08:56:05.808Z,100206.34
2019-02-14T08:58:35.104Z,100199.77
2019-02-14T09:01:04.667Z,100202.81
2019-02-14T09:03:33.939Z,100197.91
2019-02-14T09:06:03.217Z,100205.02
2019-02-14T09:08:32.488Z,100210.41
2019-02-14T09:11:01.820Z,100209.30
2019-02-14T09:13:31.136Z,100211.62
2019-02-14T09:16:00.425Z,100217.73
2019-02-14T09:18:29.758Z,100218.71
2019-02-14T09:21:00.317Z,100218.19
2019-02-14T09:23:29.669Z,100213.00
2019-02-14T09:25:58.935Z,100213.84
2019-02-14T09:28:36.486Z,100214.63
2019-02-14T09:31:07.485Z,100203.02
2019-02-14T09:33:36.766Z,100203.47
2019-02-14T09:36:06.046Z,100199.69
2019-02-14T09:38:36.445Z,100196.58
2019-02-14T09:41:05.727Z,100207.39
2019-02-14T09:43:35.043Z,100202.94
2019-02-14T09:46:04.328Z,100214.78
2019-02-14T09:48:33.597Z,100206.82
2019-02-14T09:51:02.915Z,100200.22
2019-02-14T09:53:32.186Z,100192.11
2019-02-14T09:56:01.523Z,100194.48
2019-02-14T09:58:30.868Z,100190.28
2019-02-14T10:01:01.156Z,100200.53
2019-02-14T10:03:30.485Z,100197.30
2019-02-14T10:05:59.714Z,100195.84
2019-02-14T10:08:29.032Z,100205.52
2019-02-14T10:10:58.272Z,100208.75
2019-02-14T10:13:27.575Z,100216.95
2019-02-14T10:15:56.851Z,100218.27
2019-02-14T10:18:26.124Z,100215.14
2019-02-14T10:20:55.404Z,100213.23
2019-02-14T10:23:24.705Z,100204.69
2019-02-14T10:25:53.978Z,100203.33
2019-02-14T10:28:23.247Z,100198.56
2019-02-14T10:30:52.517Z,100198.97
2019-02-14T10:33:21.778Z,100194.72
2019-02-14T10:35:51.123Z,100185.23
2019-02-14T10:38:22.673Z,100191.20
2019-02-14T10:40:51.625Z,100200.15
2019-02-14T10:43:22.056Z,100203.27
2019-02-14T10:45:51.317Z,100202.59
2019-02-14T10:48:20.605Z,100193.92
2019-02-14T10:50:49.880Z,100195.83
2019-02-14T10:53:19.192Z,100194.33
2019-02-14T10:55:48.461Z,100181.80
2019-02-14T10:58:17.730Z,100187.43
2019-02-14T11:00:47.009Z,100183.39
2019-02-14T11:03:16.401Z,100166.91
2019-02-14T11:05:45.719Z,100169.27
2019-02-14T11:08:15.021Z,100167.98
2019-02-14T11:10:44.305Z,100166.95
2019-02-14T11:13:13.635Z,100165.09
2019-02-14T11:15:42.946Z,100150.91
2019-02-14T11:18:12.259Z,100151.63
2019-02-14T11:20:41.524Z,100170.59
2019-02-14T11:23:10.806Z,100180.42
2019-02-14T11:25:40.077Z,100173.97
2019-02-14T11:28:09.371Z,100174.07
2019-02-14T11:30:38.626Z,100178.99
2019-02-14T11:33:07.908Z,100180.41
2019-02-14T11:35:37.172Z,100167.64
2019-02-14T11:38:06.506Z,100164.45
2019-02-14T11:40:35.789Z,100163.76
2019-02-14T11:43:05.055Z,100158.22
2019-02-14T11:45:34.407Z,100149.16
2019-02-14T11:48:03.753Z,100159.16
2019-02-14T11:50:33.037Z,100163.84
2019-02-14T11:53:02.367Z,100151.55
2019-02-14T11:55:31.655Z,100135.31
2019-02-14T11:58:00.962Z,100127.84
2019-02-14T12:00:30.268Z,100138.72
2019-02-14T12:02:59.567Z,100137.82
2019-02-14T12:05:28.855Z,100119.67
2019-02-14T12:07:58.121Z,100111.64
2019-02-14T12:10:27.406Z,100112.25
2019-02-14T12:12:56.801Z,100116.95
2019-02-14T12:15:26.075Z,100114.75
2019-02-14T12:17:55.340Z,100113.53
2019-02-14T12:20:24.631Z,100107.48
2019-02-14T12:22:53.923Z,100101.41
2019-02-14T12:25:23.450Z,100104.97
2019-02-14T12:27:52.753Z,100092.75
2019-02-14T12:30:22.021Z,100084.78
2019-02-14T12:32:51.311Z,100084.78
2019-02-14T12:35:20.579Z,100085.58
2019-02-14T12:37:49.919Z,100075.01
2019-02-14T12:40:19.239Z,100067.77
2019-02-14T12:42:48.494Z,100067.04
2019-02-14T12:47:50.990Z,100053.95
2019-02-14T12:50:20.293Z,100056.20
2019-02-14T12:52:49.579Z,100057.09
2019-02-14T12:55:18.915Z,100050.28
2019-02-14T12:57:48.184Z,100052.48
2019-02-14T13:00:19.459Z,100050.92
2019-02-14T13:02:49.749Z,100042.22
2019-02-14T13:05:19.001Z,100050.34
2019-02-14T13:07:48.305Z,100047.66
2019-02-14T13:10:17.609Z,100045.41
2019-02-14T13:12:46.910Z,100042.81
2019-02-14T13:15:18.267Z,100042.38
2019-02-14T13:17:47.542Z,100035.80
2019-02-14T13:20:16.824Z,100027.51
2019-02-14T13:22:46.107Z,100024.77
2019-02-14T13:25:15.382Z,100024.88
2019-02-14T13:27:44.671Z,100021.00
2019-02-14T13:30:16.673Z,100030.16
2019-02-14T13:32:45.949Z,100028.42
2019-02-14T13:35:15.205Z,100029.53
2019-02-14T13:37:44.502Z,100018.53
2019-02-14T13:40:13.958Z,100005.47
2019-02-14T13:42:43.245Z,100008.92
2019-02-14T13:45:14.112Z,100000.43
2019-02-14T13:47:43.416Z,100003.23
2019-02-14T13:50:15.738Z,100008.46
2019-02-14T13:52:44.229Z,100020.06
2019-02-14T13:55:13.679Z,100031.91
2019-02-14T13:57:42.933Z,100032.08
2019-02-14T14:00:16.225Z,100034.41
2019-02-14T14:02:45.481Z,100035.17
2019-02-14T14:05:14.833Z,100037.59
2019-02-14T14:07:44.131Z,100029.00
2019-02-14T14:10:13.394Z,100023.17
2019-02-14T14:12:42.686Z,100031.30
2019-02-14T14:15:11.965Z,100029.27
2019-02-14T14:17:41.251Z,100026.97
2019-02-14T14:20:10.618Z,100009.34
2019-02-14T14:22:39.894Z,100003.61
2019-02-14T14:25:09.393Z,100004.94
2019-02-14T14:27:40.596Z,100010.78
2019-02-14T14:30:10.365Z,100004.89
2019-02-14T14:32:39.647Z,100000.88
2019-02-14T14:35:10.919Z,100009.10
2019-02-14T14:37:40.583Z,100017.86
2019-02-14T14:40:11.008Z,100023.09
2019-02-14T14:43:08.090Z,100026.95
2019-02-14T14:45:56.459Z,100023.87
2019-02-14T14:48:28.172Z,100020.59
2019-02-14T14:50:57.438Z,100018.23
2019-02-14T14:53:26.713Z,100011.06
2019-02-14T14:55:55.986Z,100006.22
2019-02-14T14:58:25.296Z,100001.19
2019-02-14T15:00:54.551Z,100006.62
2019-02-14T15:03:23.821Z,100003.13
2019-02-14T15:05:53.335Z,100001.72
2019-02-14T15:08:22.684Z,100000.03
2019-02-14T15:10:51.960Z,99999.66
2019-02-14T15:13:21.248Z,100001.61
2019-02-14T15:15:50.500Z,99999.39
2019-02-14T15:18:19.751Z,100004.50
2019-02-14T15:20:49.029Z,99992.17
2019-02-14T15:23:18.299Z,99994.91
2019-02-14T15:25:47.547Z,99993.80
2019-02-14T15:28:16.828Z,99993.37
2019-02-14T15:30:46.115Z,100002.47
2019-02-14T15:33:15.392Z,100008.38
2019-02-14T15:35:44.708Z,100012.61
2019-02-14T15:38:13.960Z,100005.20
2019-02-14T15:40:43.240Z,100000.92
2019-02-14T15:43:12.515Z,100004.87
2019-02-14T15:45:41.800Z,100004.64
2019-02-14T15:48:11.063Z,100000.33
2019-02-14T15:50:40.345Z,100002.20
2019-02-14T15:53:10.690Z,99998.19
2019-02-14T15:55:41.677Z,99997.77
2019-02-14T15:58:10.938Z,99995.70
2019-02-14T16:00:40.208Z,100001.99
2019-02-14T16:03:09.451Z,99995.14
2019-02-14T16:05:40.329Z,99995.14
2019-02-14T16:08:09.699Z,100000.33
2019-02-14T16:10:38.996Z,100002.33
2019-02-14T16:13:09.838Z,100002.96
2019-02-14T16:15:39.218Z,100008.81
2019-02-14T16:18:08.495Z,100005.62
2019-02-14T16:20:40.405Z,100007.55
2019-02-14T16:23:09.766Z,100012.56
2019-02-14T16:25:39.089Z,100018.37
2019-02-14T16:28:11.010Z,100022.58
2019-02-14T16:30:39.420Z,100021.05
2019-02-14T16:33:08.669Z,100021.59
2019-02-14T16:35:37.968Z,100016.21
2019-02-14T16:38:07.299Z,100015.77
2019-02-14T16:40:38.840Z,100014.78
2019-02-14T16:43:07.607Z,100020.88
2019-02-14T16:45:38.759Z,100012.63
2019-02-14T16:48:10.598Z,100022.73
2019-02-14T16:50:41.128Z,100021.72
2019-02-14T16:53:11.616Z,100021.18
2019-02-14T16:55:41.300Z,100027.72
2019-02-14T16:58:10.605Z,100034.33
2019-02-14T17:00:40.061Z,100034.34
2019-02-14T17:03:09.340Z,100028.89
2019-02-14T17:05:38.934Z,100025.39
2019-02-14T17:08:08.194Z,100028.98
2019-02-14T17:10:37.518Z,100029.84
2019-02-14T17:13:06.777Z,100028.48
2019-02-14T17:15:36.632Z,100022.03
2019-02-14T17:18:05.912Z,100021.83
2019-02-14T17:20:35.257Z,100028.65
2019-02-14T17:23:05.362Z,100028.97
2019-02-14T17:25:34.655Z,100036.83
2019-02-14T17:28:03.958Z,100030.59
2019-02-14T17:30:33.193Z,100029.52
2019-02-14T17:33:02.470Z,100029.83
2019-02-14T17:35:31.736Z,100037.44
2019-02-14T17:38:01.024Z,100034.77
2019-02-14T17:40:30.319Z,100033.13
2019-02-14T17:42:59.611Z,100035.88
2019-02-14T17:45:28.903Z,100040.75
2019-02-14T17:47:58.325Z,100052.12
2019-02-14T17:50:27.572Z,100052.13
2019-02-14T17:52:56.850Z,100041.30
2019-02-14T17:55:26.155Z,100050.50
2019-02-14T17:57:55.396Z,100052.94
2019-02-14T18:00:24.681Z,100053.47
2019-02-14T18:02:54.198Z,100049.94
2019-02-14T18:05:23.495Z,100039.11
2019-02-14T18:07:52.769Z,100045.60
2019-02-14T18:10:22.067Z,100052.66
2019-02-14T18:12:51.394Z,100048.03
2019-02-14T18:15:20.917Z,100044.23
2019-02-14T18:17:50.235Z,100042.06
2019-02-14T18:20:19.612Z,100040.19
2019-02-14T18:22:49.985Z,100038.25
2019-02-14T18:25:19.296Z,100047.73
2019-02-14T18:27:48.672Z,100038.20
2019-02-14T18:30:17.976Z,100041.95
2019-02-14T18:32:47.278Z,100041.67
2019-02-14T18:35:16.555Z,100031.95
2019-02-14T18:37:45.835Z,100036.27
2019-02-14T18:40:15.119Z,100038.98
2019-02-14T18:42:46.052Z,100033.56
2019-02-14T18:45:15.450Z,100036.22
2019-02-14T18:47:46.783Z,100038.44
2019-02-14T18:50:18.410Z,100037.91
2019-02-14T18:52:48.178Z,100035.72
2019-02-14T18:55:18.391Z,100041.64
2019-02-14T18:57:47.829Z,100043.53
2019-02-14T19:00:17.199Z,100043.85
2019-02-14T19:02:46.481Z,100044.88
2019-02-14T19:05:17.591Z,100042.13
2019-02-14T19:07:46.890Z,100043.77
2019-02-14T19:10:16.209Z,100035.38
2019-02-14T19:12:47.096Z,100037.55
2019-02-14T19:15:16.350Z,100035.08
2019-02-14T19:17:45.657Z,100036.38
2019-02-14T19:20:14.924Z,100033.95
2019-02-14T19:22:44.221Z,100038.55
2019-02-14T19:25:13.928Z,100037.62
2019-02-14T19:27:43.349Z,100035.50
2019-02-14T19:30:16.895Z,100033.60
2019-02-14T19:32:46.171Z,100025.72
2019-02-14T19:35:22.826Z,100028.38
2019-02-14T19:37:46.508Z,100027.47
2019-02-14T19:40:15.803Z,100025.84
2019-02-14T19:42:45.338Z,100023.31
2019-02-14T19:45:14.716Z,100021.91
2019-02-14T19:47:44.036Z,100020.56
2019-02-14T19:50:13.561Z,100017.80
2019-02-14T19:52:42.832Z,100024.27
2019-02-14T19:55:12.324Z,100023.55
2019-02-14T19:57:41.585Z,100017.61
2019-02-14T20:00:12.709Z,100013.25
2019-02-14T20:02:45.304Z,100017.80
2019-02-14T20:05:14.627Z,100014.88
2019-02-14T20:07:43.973Z,100011.37
2019-02-14T20:10:13.344Z,100013.17
2019-02-14T20:12:42.754Z,100017.98
2019-02-14T20:15:13.941Z,100020.34
2019-02-14T20:17:43.272Z,100021.14
2019-02-14T20:20:12.726Z,100014.61
2019-02-14T20:22:43.414Z,100015.34
2019-02-14T20:25:13.976Z,100018.44
2019-02-14T20:27:43.411Z,100013.70
2019-02-14T20:30:12.749Z,100015.88
2019-02-14T20:32:42.152Z,100025.45
2019-02-14T20:35:11.844Z,100026.33
2019-02-14T20:37:41.095Z,100021.84
2019-02-14T20:40:10.683Z,100014.02
2019-02-14T20:42:40.080Z,100018.98
2019-02-14T20:45:10.736Z,100014.40
2019-02-14T20:47:40.047Z,100022.78
2019-02-14T20:50:11.168Z,100023.86
2019-02-14T20:52:42.056Z,100022.05
2019-02-14T20:55:13.159Z,100024.72
2019-02-14T20:57:42.536Z,100026.71
2019-02-14T21:00:22.319Z,100032.70
2019-02-14T21:02:51.653Z,100038.24
2019-02-14T21:05:21.305Z,100036.61
2019-02-14T21:07:51.091Z,100038.19
2019-02-14T21:10:21.853Z,100039.02
2019-02-14T21:12:51.170Z,100038.22
2019-02-14T21:15:20.448Z,100040.14
2019-02-14T21:17:49.794Z,100038.64
2019-02-14T21:20:19.354Z,100044.92
2019-02-14T21:22:48.738Z,100040.85
2019-02-14T21:25:22.594Z,100041.38
2019-02-14T21:27:49.073Z,100036.82
2019-02-14T21:30:19.226Z,100043.97
2019-02-14T21:32:50.162Z,100049.54
2019-02-14T21:35:19.441Z,100050.27
2019-02-14T21:37:49.195Z,100050.09
2019-02-14T21:40:18.929Z,100048.41
2019-02-14T21:42:48.333Z,100051.69
2019-02-14T21:45:18.330Z,100052.27
2019-02-14T21:47:48.047Z,100053.14
2019-02-14T21:50:18.819Z,100046.73
2019-02-14T21:52:48.358Z,100049.75
2019-02-14T21:55:17.785Z,100037.83
2019-02-14T21:57:47.193Z,100038.97
2019-02-14T22:00:18.523Z,100041.44
2019-02-14T22:02:48.810Z,100035.72
2019-02-14T22:05:24.605Z,100038.22
2019-02-14T22:07:49.924Z,100033.17
2019-02-14T22:10:19.511Z,100033.88
2019-02-14T22:12:48.827Z,100036.16
2019-02-14T22:15:18.205Z,100037.02
2019-02-14T22:17:48.150Z,100037.22
2019-02-14T22:20:17.450Z,100034.39
2019-02-14T22:22:46.712Z,100040.34
2019-02-14T22:25:15.970Z,100034.61
2019-02-14T22:27:46.490Z,100030.77
2019-02-14T22:30:16.238Z,100044.33
2019-02-14T22:32:46.005Z,100034.67
2019-02-14T22:35:15.376Z,100038.61
2019-02-14T22:37:44.760Z,100038.70
2019-02-14T22:40:14.039Z,100045.73
2019-02-14T22:42:47.186Z,100051.05
2019-02-14T22:45:14.605Z,100051.19
2019-02-14T22:47:45.254Z,100041.25
2019-02-14T22:50:14.938Z,100042.45
2019-02-14T22:52:45.270Z,100045.69
2019-02-14T22:55:14.719Z,100045.85
2019-02-14T22:57:43.996Z,100050.77
2019-02-14T23:00:29.960Z,100042.58
2019-02-14T23:02:59.251Z,100044.41
2019-02-14T23:05:28.714Z,100050.37
2019-02-14T23:07:57.973Z,100043.83
2019-02-14T23:10:27.636Z,100036.14
2019-02-14T23:12:57.101Z,100042.77
2019-02-14T23:15:26.387Z,100043.70
2019-02-14T23:17:55.755Z,100042.62
2019-02-14T23:20:25.053Z,100044.91
2019-02-14T23:22:54.298Z,100041.62
2019-02-14T23:25:23.578Z,100039.23
2019-02-14T23:27:52.819Z,100040.48
2019-02-14T23:30:22.121Z,100036.27
2019-02-14T23:32:51.368Z,100037.50
2019-02-14T23:35:20.646Z,100040.77
2019-02-14T23:37:49.908Z,100046.08
2019-02-14T23:40:19.195Z,100040.58
2019-02-14T23:42:48.448Z,100044.16
2019-02-14T23:45:17.724Z,100049.14
2019-02-14T23:47:46.988Z,100047.09
2019-02-14T23:50:16.269Z,100047.16
2019-02-14T23:52:45.520Z,100045.39
2019-02-14T23:55:14.797Z,100042.12
2019-02-14T23:57:44.041Z,100035.20
